sensor_id;sensor_type;location;lat;lon;timestamp;temperature;humidity
52899;DHT22;38763;53.096;6.062;2022-08-19T00:00:16;16.30;99.90
52899;DHT22;38763;53.096;6.062;2022-08-19T00:02:42;16.20;99.90
52899;DHT22;38763;53.096;6.062;2022-08-19T00:05:10;16.10;99.90
52899;DHT22;38763;53.096;6.062;2022-08-19T00:07:36;15.90;99.90
52899;DHT22;38763;53.096;6.062;2022-08-19T00:10:05;15.90;99.90
52899;DHT22;38763;53.096;6.062;2022-08-19T00:12:30;15.90;99.90
52899;DHT22;38763;53.096;6.062;2022-08-19T00:14:56;15.90;99.90
52899;DHT22;38763;53.096;6.062;2022-08-19T00:17:22;15.90;99.90
52899;DHT22;38763;53.096;6.062;2022-08-19T00:19:48;15.90;99.90
52899;DHT22;38763;53.096;6.062;2022-08-19T00:22:14;15.90;99.90
52899;DHT22;38763;53.096;6.062;2022-08-19T00:24:40;15.80;99.90
52899;DHT22;38763;53.096;6.062;2022-08-19T00:27:06;15.80;99.90
52899;DHT22;38763;53.096;6.062;2022-08-19T00:29:32;15.70;99.90
52899;DHT22;38763;53.096;6.062;2022-08-19T00:31:57;15.80;99.90
52899;DHT22;38763;53.096;6.062;2022-08-19T00:34:25;15.80;99.90
52899;DHT22;38763;53.096;6.062;2022-08-19T00:36:54;15.70;99.90
52899;DHT22;38763;53.096;6.062;2022-08-19T00:39:19;15.70;99.90
52899;DHT22;38763;53.096;6.062;2022-08-19T00:41:46;15.60;99.90
52899;DHT22;38763;53.096;6.062;2022-08-19T00:44:27;15.70;99.90
52899;DHT22;38763;53.096;6.062;2022-08-19T00:46:56;15.60;99.90
52899;DHT22;38763;53.096;6.062;2022-08-19T00:49:40;15.50;99.90
52899;DHT22;38763;53.096;6.062;2022-08-19T00:52:11;15.60;99.90
52899;DHT22;38763;53.096;6.062;2022-08-19T00:54:39;15.50;99.90
52899;DHT22;38763;53.096;6.062;2022-08-19T00:57:09;15.50;99.90
52899;DHT22;38763;53.096;6.062;2022-08-19T00:59:39;15.50;99.90
52899;DHT22;38763;53.096;6.062;2022-08-19T01:02:06;15.40;99.90
52899;DHT22;38763;53.096;6.062;2022-08-19T01:04:32;15.40;99.90
52899;DHT22;38763;53.096;6.062;2022-08-19T01:06:58;15.50;99.90
52899;DHT22;38763;53.096;6.062;2022-08-19T01:09:24;15.40;99.90
52899;DHT22;38763;53.096;6.062;2022-08-19T01:11:50;15.50;99.90
52899;DHT22;38763;53.096;6.062;2022-08-19T01:14:16;15.50;99.90
52899;DHT22;38763;53.096;6.062;2022-08-19T01:16:43;15.40;99.90
52899;DHT22;38763;53.096;6.062;2022-08-19T01:19:18;15.40;99.90
52899;DHT22;38763;53.096;6.062;2022-08-19T01:21:52;15.50;99.90
52899;DHT22;38763;53.096;6.062;2022-08-19T01:24:20;15.50;99.90
52899;DHT22;38763;53.096;6.062;2022-08-19T01:26:47;15.40;99.90
52899;DHT22;38763;53.096;6.062;2022-08-19T01:29:13;15.40;99.90
52899;DHT22;38763;53.096;6.062;2022-08-19T01:31:39;15.30;99.90
52899;DHT22;38763;53.096;6.062;2022-08-19T01:34:05;15.30;99.90
52899;DHT22;38763;53.096;6.062;2022-08-19T01:36:38;15.30;99.90
52899;DHT22;38763;53.096;6.062;2022-08-19T01:39:06;15.30;99.90
52899;DHT22;38763;53.096;6.062;2022-08-19T01:41:32;15.30;99.90
52899;DHT22;38763;53.096;6.062;2022-08-19T01:43:58;15.20;99.90
52899;DHT22;38763;53.096;6.062;2022-08-19T01:46:24;15.20;99.90
52899;DHT22;38763;53.096;6.062;2022-08-19T01:48:50;15.20;99.90
52899;DHT22;38763;53.096;6.062;2022-08-19T01:51:15;15.20;99.90
52899;DHT22;38763;53.096;6.062;2022-08-19T01:53:41;15.20;99.90
52899;DHT22;38763;53.096;6.062;2022-08-19T01:56:07;15.20;99.90
52899;DHT22;38763;53.096;6.062;2022-08-19T01:58:38;15.10;99.90
52899;DHT22;38763;53.096;6.062;2022-08-19T02:01:07;15.10;99.90
52899;DHT22;38763;53.096;6.062;2022-08-19T02:03:32;15.10;99.90
52899;DHT22;38763;53.096;6.062;2022-08-19T02:06:00;15.10;99.90
52899;DHT22;38763;53.096;6.062;2022-08-19T02:08:28;15.10;99.90
52899;DHT22;38763;53.096;6.062;2022-08-19T02:10:54;15.20;99.90
52899;DHT22;38763;53.096;6.062;2022-08-19T02:13:19;15.10;99.90
52899;DHT22;38763;53.096;6.062;2022-08-19T02:15:45;15.10;99.90
52899;DHT22;38763;53.096;6.062;2022-08-19T02:18:12;15.00;99.90
52899;DHT22;38763;53.096;6.062;2022-08-19T02:20:38;15.00;99.90
52899;DHT22;38763;53.096;6.062;2022-08-19T02:23:06;15.00;99.90
52899;DHT22;38763;53.096;6.062;2022-08-19T02:25:32;15.00;99.90
52899;DHT22;38763;53.096;6.062;2022-08-19T02:27:58;15.00;99.90
52899;DHT22;38763;53.096;6.062;2022-08-19T02:30:23;14.90;99.90
52899;DHT22;38763;53.096;6.062;2022-08-19T02:32:51;14.90;99.90
52899;DHT22;38763;53.096;6.062;2022-08-19T02:35:17;14.90;99.90
52899;DHT22;38763;53.096;6.062;2022-08-19T02:37:43;14.90;99.90
52899;DHT22;38763;53.096;6.062;2022-08-19T02:40:29;14.90;99.90
52899;DHT22;38763;53.096;6.062;2022-08-19T02:42:55;14.90;99.90
52899;DHT22;38763;53.096;6.062;2022-08-19T02:45:21;14.90;99.90
52899;DHT22;38763;53.096;6.062;2022-08-19T02:47:48;14.90;99.90
52899;DHT22;38763;53.096;6.062;2022-08-19T02:50:13;14.90;99.90
52899;DHT22;38763;53.096;6.062;2022-08-19T02:52:40;14.90;99.90
52899;DHT22;38763;53.096;6.062;2022-08-19T02:55:06;15.00;99.90
52899;DHT22;38763;53.096;6.062;2022-08-19T02:57:32;15.00;99.90
52899;DHT22;38763;53.096;6.062;2022-08-19T02:59:58;15.00;99.90
52899;DHT22;38763;53.096;6.062;2022-08-19T03:02:24;15.00;99.90
52899;DHT22;38763;53.096;6.062;2022-08-19T03:04:50;15.00;99.90
52899;DHT22;38763;53.096;6.062;2022-08-19T03:07:17;14.90;99.90
52899;DHT22;38763;53.096;6.062;2022-08-19T03:09:43;14.90;99.90
52899;DHT22;38763;53.096;6.062;2022-08-19T03:12:10;14.90;99.90
52899;DHT22;38763;53.096;6.062;2022-08-19T03:14:36;14.90;99.90
52899;DHT22;38763;53.096;6.062;2022-08-19T03:17:03;14.80;99.90
52899;DHT22;38763;53.096;6.062;2022-08-19T03:19:30;14.90;99.90
52899;DHT22;38763;53.096;6.062;2022-08-19T03:21:57;14.90;99.90
52899;DHT22;38763;53.096;6.062;2022-08-19T03:24:23;14.90;99.90
52899;DHT22;38763;53.096;6.062;2022-08-19T03:26:53;14.90;99.90
52899;DHT22;38763;53.096;6.062;2022-08-19T03:29:22;14.90;99.90
52899;DHT22;38763;53.096;6.062;2022-08-19T03:31:48;14.80;99.90
52899;DHT22;38763;53.096;6.062;2022-08-19T03:34:23;14.90;99.90
52899;DHT22;38763;53.096;6.062;2022-08-19T03:36:52;15.00;99.90
52899;DHT22;38763;53.096;6.062;2022-08-19T03:39:19;14.90;99.90
52899;DHT22;38763;53.096;6.062;2022-08-19T03:41:47;14.90;99.90
52899;DHT22;38763;53.096;6.062;2022-08-19T03:44:17;14.90;99.90
52899;DHT22;38763;53.096;6.062;2022-08-19T03:46:50;14.90;99.90
52899;DHT22;38763;53.096;6.062;2022-08-19T03:49:17;14.90;99.90
52899;DHT22;38763;53.096;6.062;2022-08-19T03:51:44;14.90;99.90
52899;DHT22;38763;53.096;6.062;2022-08-19T03:54:12;14.80;99.90
52899;DHT22;38763;53.096;6.062;2022-08-19T03:56:40;14.80;99.90
52899;DHT22;38763;53.096;6.062;2022-08-19T03:59:08;14.90;99.90
52899;DHT22;38763;53.096;6.062;2022-08-19T04:01:35;14.90;99.90
52899;DHT22;38763;53.096;6.062;2022-08-19T04:04:01;14.90;99.90
52899;DHT22;38763;53.096;6.062;2022-08-19T04:06:30;14.90;99.90
52899;DHT22;38763;53.096;6.062;2022-08-19T04:08:58;14.80;99.90
52899;DHT22;38763;53.096;6.062;2022-08-19T04:11:31;14.90;99.90
52899;DHT22;38763;53.096;6.062;2022-08-19T04:13:57;14.80;99.90
52899;DHT22;38763;53.096;6.062;2022-08-19T04:16:25;14.90;99.90
52899;DHT22;38763;53.096;6.062;2022-08-19T04:18:59;14.90;99.90
52899;DHT22;38763;53.096;6.062;2022-08-19T04:21:27;14.80;99.90
52899;DHT22;38763;53.096;6.062;2022-08-19T04:23:54;14.90;99.90
52899;DHT22;38763;53.096;6.062;2022-08-19T04:26:22;14.80;99.90
52899;DHT22;38763;53.096;6.062;2022-08-19T04:28:48;14.80;99.90
52899;DHT22;38763;53.096;6.062;2022-08-19T04:31:27;14.90;99.90
52899;DHT22;38763;53.096;6.062;2022-08-19T04:33:54;14.90;99.90
52899;DHT22;38763;53.096;6.062;2022-08-19T04:36:24;15.00;99.90
52899;DHT22;38763;53.096;6.062;2022-08-19T04:38:54;15.00;99.90
52899;DHT22;38763;53.096;6.062;2022-08-19T04:41:19;14.90;99.90
52899;DHT22;38763;53.096;6.062;2022-08-19T04:44:04;14.90;99.90
52899;DHT22;38763;53.096;6.062;2022-08-19T04:46:30;14.90;99.90
52899;DHT22;38763;53.096;6.062;2022-08-19T04:48:57;15.00;99.90
52899;DHT22;38763;53.096;6.062;2022-08-19T04:51:23;14.90;99.90
52899;DHT22;38763;53.096;6.062;2022-08-19T04:53:49;15.00;99.90
52899;DHT22;38763;53.096;6.062;2022-08-19T04:56:16;15.00;99.90
52899;DHT22;38763;53.096;6.062;2022-08-19T04:58:44;14.90;99.90
52899;DHT22;38763;53.096;6.062;2022-08-19T05:01:17;15.00;99.90
52899;DHT22;38763;53.096;6.062;2022-08-19T05:03:42;15.10;99.90
52899;DHT22;38763;53.096;6.062;2022-08-19T05:06:13;15.10;99.90
52899;DHT22;38763;53.096;6.062;2022-08-19T05:08:40;15.10;99.90
52899;DHT22;38763;53.096;6.062;2022-08-19T05:11:17;15.20;99.90
52899;DHT22;38763;53.096;6.062;2022-08-19T05:13:44;15.20;99.90
52899;DHT22;38763;53.096;6.062;2022-08-19T05:16:11;15.10;99.90
52899;DHT22;38763;53.096;6.062;2022-08-19T05:18:38;15.20;99.90
52899;DHT22;38763;53.096;6.062;2022-08-19T05:21:22;15.30;99.90
52899;DHT22;38763;53.096;6.062;2022-08-19T05:24:07;15.50;99.90
52899;DHT22;38763;53.096;6.062;2022-08-19T05:26:37;15.50;99.90
52899;DHT22;38763;53.096;6.062;2022-08-19T05:29:04;15.50;99.90
52899;DHT22;38763;53.096;6.062;2022-08-19T05:31:30;15.60;99.90
52899;DHT22;38763;53.096;6.062;2022-08-19T05:33:56;15.70;99.90
52899;DHT22;38763;53.096;6.062;2022-08-19T05:36:27;15.70;99.90
52899;DHT22;38763;53.096;6.062;2022-08-19T05:38:53;15.70;99.90
52899;DHT22;38763;53.096;6.062;2022-08-19T05:41:20;15.90;99.90
52899;DHT22;38763;53.096;6.062;2022-08-19T05:43:45;15.80;99.90
52899;DHT22;38763;53.096;6.062;2022-08-19T05:46:17;15.90;99.90
52899;DHT22;38763;53.096;6.062;2022-08-19T05:48:44;15.90;99.90
52899;DHT22;38763;53.096;6.062;2022-08-19T05:51:09;16.00;99.90
52899;DHT22;38763;53.096;6.062;2022-08-19T05:53:35;16.10;99.90
52899;DHT22;38763;53.096;6.062;2022-08-19T05:56:10;16.00;99.90
52899;DHT22;38763;53.096;6.062;2022-08-19T05:58:37;16.10;99.90
52899;DHT22;38763;53.096;6.062;2022-08-19T06:01:04;16.20;99.90
52899;DHT22;38763;53.096;6.062;2022-08-19T06:03:32;16.20;99.90
52899;DHT22;38763;53.096;6.062;2022-08-19T06:05:59;16.30;99.90
52899;DHT22;38763;53.096;6.062;2022-08-19T06:08:26;16.40;99.90
52899;DHT22;38763;53.096;6.062;2022-08-19T06:10:52;16.40;99.90
52899;DHT22;38763;53.096;6.062;2022-08-19T06:13:18;16.50;99.90
52899;DHT22;38763;53.096;6.062;2022-08-19T06:15:45;16.60;99.90
52899;DHT22;38763;53.096;6.062;2022-08-19T06:18:12;16.70;99.90
52899;DHT22;38763;53.096;6.062;2022-08-19T06:20:38;16.70;99.90
52899;DHT22;38763;53.096;6.062;2022-08-19T06:23:04;16.80;99.90
52899;DHT22;38763;53.096;6.062;2022-08-19T06:25:29;16.80;99.90
52899;DHT22;38763;53.096;6.062;2022-08-19T06:27:55;16.70;99.90
52899;DHT22;38763;53.096;6.062;2022-08-19T06:30:21;17.00;99.90
52899;DHT22;38763;53.096;6.062;2022-08-19T06:32:47;16.90;99.90
52899;DHT22;38763;53.096;6.062;2022-08-19T06:35:12;17.00;99.90
52899;DHT22;38763;53.096;6.062;2022-08-19T06:37:40;17.10;99.90
52899;DHT22;38763;53.096;6.062;2022-08-19T06:40:06;17.10;99.90
52899;DHT22;38763;53.096;6.062;2022-08-19T06:42:34;17.30;99.90
52899;DHT22;38763;53.096;6.062;2022-08-19T06:45:00;17.20;99.90
52899;DHT22;38763;53.096;6.062;2022-08-19T06:47:28;17.30;99.90
52899;DHT22;38763;53.096;6.062;2022-08-19T06:49:58;17.40;99.90
52899;DHT22;38763;53.096;6.062;2022-08-19T06:52:32;17.50;99.90
52899;DHT22;38763;53.096;6.062;2022-08-19T06:54:59;17.50;99.90
52899;DHT22;38763;53.096;6.062;2022-08-19T06:57:26;17.60;99.90
52899;DHT22;38763;53.096;6.062;2022-08-19T06:59:52;17.70;99.90
52899;DHT22;38763;53.096;6.062;2022-08-19T07:02:19;17.70;99.90
52899;DHT22;38763;53.096;6.062;2022-08-19T07:04:45;17.90;99.90
52899;DHT22;38763;53.096;6.062;2022-08-19T07:07:13;17.90;99.90
52899;DHT22;38763;53.096;6.062;2022-08-19T07:09:41;18.10;99.90
52899;DHT22;38763;53.096;6.062;2022-08-19T07:12:10;18.10;99.90
52899;DHT22;38763;53.096;6.062;2022-08-19T07:14:36;18.20;99.90
52899;DHT22;38763;53.096;6.062;2022-08-19T07:17:05;18.20;99.90
52899;DHT22;38763;53.096;6.062;2022-08-19T07:19:31;18.30;99.90
52899;DHT22;38763;53.096;6.062;2022-08-19T07:21:58;18.40;99.90
52899;DHT22;38763;53.096;6.062;2022-08-19T07:24:27;18.50;99.90
52899;DHT22;38763;53.096;6.062;2022-08-19T07:26:55;18.50;99.90
52899;DHT22;38763;53.096;6.062;2022-08-19T07:29:22;18.60;99.90
52899;DHT22;38763;53.096;6.062;2022-08-19T07:31:51;18.70;99.90
52899;DHT22;38763;53.096;6.062;2022-08-19T07:34:17;18.90;99.90
52899;DHT22;38763;53.096;6.062;2022-08-19T07:36:44;18.90;99.90
52899;DHT22;38763;53.096;6.062;2022-08-19T07:39:25;19.00;99.90
52899;DHT22;38763;53.096;6.062;2022-08-19T07:41:52;19.10;99.90
52899;DHT22;38763;53.096;6.062;2022-08-19T07:44:18;19.20;99.90
52899;DHT22;38763;53.096;6.062;2022-08-19T07:46:49;19.30;99.90
52899;DHT22;38763;53.096;6.062;2022-08-19T07:49:16;19.40;99.90
52899;DHT22;38763;53.096;6.062;2022-08-19T07:54:22;19.60;99.90
52899;DHT22;38763;53.096;6.062;2022-08-19T07:56:48;19.90;99.90
52899;DHT22;38763;53.096;6.062;2022-08-19T07:59:17;20.90;99.90
52899;DHT22;38763;53.096;6.062;2022-08-19T08:01:43;21.90;99.90
52899;DHT22;38763;53.096;6.062;2022-08-19T08:04:09;22.60;99.90
52899;DHT22;38763;53.096;6.062;2022-08-19T08:06:53;23.40;99.90
52899;DHT22;38763;53.096;6.062;2022-08-19T08:09:41;24.10;99.90
52899;DHT22;38763;53.096;6.062;2022-08-19T08:12:14;24.40;99.90
52899;DHT22;38763;53.096;6.062;2022-08-19T08:14:43;24.20;99.90
52899;DHT22;38763;53.096;6.062;2022-08-19T08:17:10;25.00;99.90
52899;DHT22;38763;53.096;6.062;2022-08-19T08:19:37;24.90;99.90
52899;DHT22;38763;53.096;6.062;2022-08-19T08:22:03;25.10;99.90
52899;DHT22;38763;53.096;6.062;2022-08-19T08:24:31;25.60;99.90
52899;DHT22;38763;53.096;6.062;2022-08-19T08:27:00;25.70;99.90
52899;DHT22;38763;53.096;6.062;2022-08-19T08:29:30;25.60;99.90
52899;DHT22;38763;53.096;6.062;2022-08-19T08:31:57;26.20;99.90
52899;DHT22;38763;53.096;6.062;2022-08-19T08:34:23;26.10;99.90
52899;DHT22;38763;53.096;6.062;2022-08-19T08:36:49;26.00;99.90
52899;DHT22;38763;53.096;6.062;2022-08-19T08:39:18;26.30;99.90
52899;DHT22;38763;53.096;6.062;2022-08-19T08:41:52;26.30;99.90
52899;DHT22;38763;53.096;6.062;2022-08-19T08:44:42;26.40;99.90
52899;DHT22;38763;53.096;6.062;2022-08-19T08:47:15;26.30;99.90
52899;DHT22;38763;53.096;6.062;2022-08-19T08:49:53;26.20;99.90
52899;DHT22;38763;53.096;6.062;2022-08-19T08:52:25;26.30;99.90
52899;DHT22;38763;53.096;6.062;2022-08-19T08:54:57;26.70;99.90
52899;DHT22;38763;53.096;6.062;2022-08-19T09:00:18;25.10;99.90
52899;DHT22;38763;53.096;6.062;2022-08-19T09:02:44;25.30;99.90
52899;DHT22;38763;53.096;6.062;2022-08-19T09:05:11;25.90;99.90
52899;DHT22;38763;53.096;6.062;2022-08-19T09:07:41;26.10;99.90
52899;DHT22;38763;53.096;6.062;2022-08-19T09:13:33;26.00;99.90
52899;DHT22;38763;53.096;6.062;2022-08-19T09:16:08;25.60;99.90
52899;DHT22;38763;53.096;6.062;2022-08-19T09:18:50;25.50;99.90
52899;DHT22;38763;53.096;6.062;2022-08-19T09:21:20;26.00;99.90
52899;DHT22;38763;53.096;6.062;2022-08-19T09:23:48;25.90;99.90
52899;DHT22;38763;53.096;6.062;2022-08-19T09:26:17;25.90;99.90
52899;DHT22;38763;53.096;6.062;2022-08-19T09:28:47;25.90;99.90
52899;DHT22;38763;53.096;6.062;2022-08-19T09:31:16;25.60;99.90
52899;DHT22;38763;53.096;6.062;2022-08-19T09:33:41;25.50;99.90
52899;DHT22;38763;53.096;6.062;2022-08-19T09:36:11;25.70;99.90
52899;DHT22;38763;53.096;6.062;2022-08-19T09:38:38;26.10;99.90
52899;DHT22;38763;53.096;6.062;2022-08-19T09:41:14;26.40;99.90
52899;DHT22;38763;53.096;6.062;2022-08-19T09:43:41;26.30;99.90
52899;DHT22;38763;53.096;6.062;2022-08-19T09:46:08;26.10;99.90
52899;DHT22;38763;53.096;6.062;2022-08-19T09:48:40;25.80;99.90
52899;DHT22;38763;53.096;6.062;2022-08-19T09:51:09;25.90;99.90
52899;DHT22;38763;53.096;6.062;2022-08-19T09:53:36;26.20;99.90
52899;DHT22;38763;53.096;6.062;2022-08-19T09:56:03;26.50;99.90
52899;DHT22;38763;53.096;6.062;2022-08-19T09:58:29;26.80;99.90
52899;DHT22;38763;53.096;6.062;2022-08-19T10:00:59;26.30;99.90
52899;DHT22;38763;53.096;6.062;2022-08-19T10:03:26;26.20;99.90
52899;DHT22;38763;53.096;6.062;2022-08-19T10:05:52;26.50;99.90
52899;DHT22;38763;53.096;6.062;2022-08-19T10:08:25;27.00;99.90
52899;DHT22;38763;53.096;6.062;2022-08-19T10:10:51;26.80;99.90
52899;DHT22;38763;53.096;6.062;2022-08-19T10:13:19;27.30;99.90
52899;DHT22;38763;53.096;6.062;2022-08-19T10:15:47;27.40;99.90
52899;DHT22;38763;53.096;6.062;2022-08-19T10:18:15;27.70;99.90
52899;DHT22;38763;53.096;6.062;2022-08-19T10:20:43;27.90;99.90
52899;DHT22;38763;53.096;6.062;2022-08-19T10:23:11;27.70;99.90
52899;DHT22;38763;53.096;6.062;2022-08-19T10:25:36;28.10;99.90
52899;DHT22;38763;53.096;6.062;2022-08-19T10:28:03;28.10;99.90
52899;DHT22;38763;53.096;6.062;2022-08-19T10:30:28;28.00;99.90
52899;DHT22;38763;53.096;6.062;2022-08-19T10:32:54;27.00;99.90
52899;DHT22;38763;53.096;6.062;2022-08-19T10:35:20;27.10;99.90
52899;DHT22;38763;53.096;6.062;2022-08-19T10:37:45;27.30;99.90
52899;DHT22;38763;53.096;6.062;2022-08-19T10:40:11;27.20;99.90
52899;DHT22;38763;53.096;6.062;2022-08-19T10:42:37;27.50;99.90
52899;DHT22;38763;53.096;6.062;2022-08-19T10:45:04;27.80;99.90
52899;DHT22;38763;53.096;6.062;2022-08-19T10:47:31;28.00;99.90
52899;DHT22;38763;53.096;6.062;2022-08-19T10:49:57;27.50;99.90
52899;DHT22;38763;53.096;6.062;2022-08-19T10:52:46;27.10;99.90
52899;DHT22;38763;53.096;6.062;2022-08-19T10:55:12;26.90;99.90
52899;DHT22;38763;53.096;6.062;2022-08-19T10:57:57;27.00;99.90
52899;DHT22;38763;53.096;6.062;2022-08-19T11:00:23;27.60;99.90
52899;DHT22;38763;53.096;6.062;2022-08-19T11:02:50;27.80;99.90
52899;DHT22;38763;53.096;6.062;2022-08-19T11:05:16;27.50;99.90
52899;DHT22;38763;53.096;6.062;2022-08-19T11:07:43;27.20;99.90
52899;DHT22;38763;53.096;6.062;2022-08-19T11:10:11;26.60;99.90
52899;DHT22;38763;53.096;6.062;2022-08-19T11:12:38;26.30;99.90
52899;DHT22;38763;53.096;6.062;2022-08-19T11:15:05;26.00;99.90
52899;DHT22;38763;53.096;6.062;2022-08-19T11:17:31;25.50;99.90
52899;DHT22;38763;53.096;6.062;2022-08-19T11:19:57;25.10;99.90
52899;DHT22;38763;53.096;6.062;2022-08-19T11:22:22;25.20;99.90
52899;DHT22;38763;53.096;6.062;2022-08-19T11:24:48;25.00;99.90
52899;DHT22;38763;53.096;6.062;2022-08-19T11:27:14;24.90;99.90
52899;DHT22;38763;53.096;6.062;2022-08-19T11:29:40;25.00;99.90
52899;DHT22;38763;53.096;6.062;2022-08-19T11:32:08;24.90;99.90
52899;DHT22;38763;53.096;6.062;2022-08-19T11:34:35;24.90;99.90
52899;DHT22;38763;53.096;6.062;2022-08-19T11:37:02;24.90;99.90
52899;DHT22;38763;53.096;6.062;2022-08-19T11:39:30;24.90;99.90
52899;DHT22;38763;53.096;6.062;2022-08-19T11:42:00;24.90;99.90
52899;DHT22;38763;53.096;6.062;2022-08-19T11:44:28;24.80;99.90
52899;DHT22;38763;53.096;6.062;2022-08-19T11:46:55;24.90;99.90
52899;DHT22;38763;53.096;6.062;2022-08-19T11:49:21;24.80;99.90
52899;DHT22;38763;53.096;6.062;2022-08-19T11:51:48;24.80;99.90
52899;DHT22;38763;53.096;6.062;2022-08-19T11:54:16;25.00;99.90
52899;DHT22;38763;53.096;6.062;2022-08-19T11:56:43;25.30;99.90
52899;DHT22;38763;53.096;6.062;2022-08-19T11:59:09;25.40;99.90
52899;DHT22;38763;53.096;6.062;2022-08-19T12:01:36;25.40;99.90
52899;DHT22;38763;53.096;6.062;2022-08-19T12:04:02;25.50;99.90
52899;DHT22;38763;53.096;6.062;2022-08-19T12:06:31;25.50;99.90
52899;DHT22;38763;53.096;6.062;2022-08-19T12:09:01;25.50;99.90
52899;DHT22;38763;53.096;6.062;2022-08-19T12:11:27;25.70;99.90
52899;DHT22;38763;53.096;6.062;2022-08-19T12:13:53;25.50;99.90
52899;DHT22;38763;53.096;6.062;2022-08-19T12:16:26;25.60;99.90
52899;DHT22;38763;53.096;6.062;2022-08-19T12:18:52;25.50;99.90
52899;DHT22;38763;53.096;6.062;2022-08-19T12:21:21;25.30;99.90
52899;DHT22;38763;53.096;6.062;2022-08-19T12:23:49;25.20;99.90
52899;DHT22;38763;53.096;6.062;2022-08-19T12:26:15;25.00;99.90
52899;DHT22;38763;53.096;6.062;2022-08-19T12:28:40;24.90;99.90
52899;DHT22;38763;53.096;6.062;2022-08-19T12:31:07;24.90;99.90
52899;DHT22;38763;53.096;6.062;2022-08-19T12:33:33;25.00;99.90
52899;DHT22;38763;53.096;6.062;2022-08-19T12:36:06;25.00;99.90
52899;DHT22;38763;53.096;6.062;2022-08-19T12:38:33;24.90;99.90
52899;DHT22;38763;53.096;6.062;2022-08-19T12:41:00;24.90;99.90
52899;DHT22;38763;53.096;6.062;2022-08-19T12:43:26;25.10;99.90
52899;DHT22;38763;53.096;6.062;2022-08-19T12:45:51;25.20;99.90
52899;DHT22;38763;53.096;6.062;2022-08-19T12:48:17;25.10;99.90
52899;DHT22;38763;53.096;6.062;2022-08-19T12:50:44;25.10;99.90
52899;DHT22;38763;53.096;6.062;2022-08-19T12:53:13;25.10;99.90
52899;DHT22;38763;53.096;6.062;2022-08-19T12:55:40;24.80;99.90
52899;DHT22;38763;53.096;6.062;2022-08-19T12:58:06;24.60;99.90
52899;DHT22;38763;53.096;6.062;2022-08-19T13:00:33;24.60;99.90
52899;DHT22;38763;53.096;6.062;2022-08-19T13:02:59;24.60;99.90
52899;DHT22;38763;53.096;6.062;2022-08-19T13:05:30;24.50;99.90
52899;DHT22;38763;53.096;6.062;2022-08-19T13:07:58;24.60;99.90
52899;DHT22;38763;53.096;6.062;2022-08-19T13:10:28;24.50;99.90
52899;DHT22;38763;53.096;6.062;2022-08-19T13:12:54;24.40;99.90
52899;DHT22;38763;53.096;6.062;2022-08-19T13:15:22;24.30;99.90
52899;DHT22;38763;53.096;6.062;2022-08-19T13:17:49;24.30;99.90
52899;DHT22;38763;53.096;6.062;2022-08-19T13:20:16;24.20;99.90
52899;DHT22;38763;53.096;6.062;2022-08-19T13:22:42;24.20;99.90
52899;DHT22;38763;53.096;6.062;2022-08-19T13:25:10;24.20;99.90
52899;DHT22;38763;53.096;6.062;2022-08-19T13:27:37;24.20;99.90
52899;DHT22;38763;53.096;6.062;2022-08-19T13:30:04;24.30;99.90
52899;DHT22;38763;53.096;6.062;2022-08-19T13:32:49;24.20;99.90
52899;DHT22;38763;53.096;6.062;2022-08-19T13:35:33;24.20;99.90
52899;DHT22;38763;53.096;6.062;2022-08-19T13:37:59;24.00;99.90
52899;DHT22;38763;53.096;6.062;2022-08-19T13:40:26;23.90;99.90
52899;DHT22;38763;53.096;6.062;2022-08-19T13:42:54;23.60;99.90
52899;DHT22;38763;53.096;6.062;2022-08-19T13:45:22;23.50;99.90
52899;DHT22;38763;53.096;6.062;2022-08-19T13:47:49;23.40;99.90
52899;DHT22;38763;53.096;6.062;2022-08-19T13:50:22;23.30;99.90
52899;DHT22;38763;53.096;6.062;2022-08-19T13:52:47;23.10;99.90
52899;DHT22;38763;53.096;6.062;2022-08-19T13:55:15;23.10;99.90
52899;DHT22;38763;53.096;6.062;2022-08-19T13:57:41;23.10;99.90
52899;DHT22;38763;53.096;6.062;2022-08-19T14:00:13;23.20;99.90
52899;DHT22;38763;53.096;6.062;2022-08-19T14:02:39;23.20;99.90
52899;DHT22;38763;53.096;6.062;2022-08-19T14:05:07;23.20;99.90
52899;DHT22;38763;53.096;6.062;2022-08-19T14:07:34;23.40;99.90
52899;DHT22;38763;53.096;6.062;2022-08-19T14:10:00;23.40;99.90
52899;DHT22;38763;53.096;6.062;2022-08-19T14:12:25;23.50;99.90
52899;DHT22;38763;53.096;6.062;2022-08-19T14:14:51;23.60;99.90
52899;DHT22;38763;53.096;6.062;2022-08-19T14:17:16;23.60;99.90
52899;DHT22;38763;53.096;6.062;2022-08-19T14:19:43;23.60;99.90
52899;DHT22;38763;53.096;6.062;2022-08-19T14:22:08;23.70;99.90
52899;DHT22;38763;53.096;6.062;2022-08-19T14:24:36;23.80;99.90
52899;DHT22;38763;53.096;6.062;2022-08-19T14:27:02;23.90;99.90
52899;DHT22;38763;53.096;6.062;2022-08-19T14:29:28;23.90;99.90
52899;DHT22;38763;53.096;6.062;2022-08-19T14:31:55;24.10;99.90
52899;DHT22;38763;53.096;6.062;2022-08-19T14:34:25;24.00;99.90
52899;DHT22;38763;53.096;6.062;2022-08-19T14:36:51;24.10;99.90
52899;DHT22;38763;53.096;6.062;2022-08-19T14:39:17;24.00;99.90
52899;DHT22;38763;53.096;6.062;2022-08-19T14:41:43;24.20;99.90
52899;DHT22;38763;53.096;6.062;2022-08-19T14:44:11;24.20;99.90
52899;DHT22;38763;53.096;6.062;2022-08-19T14:46:38;24.20;99.90
52899;DHT22;38763;53.096;6.062;2022-08-19T14:49:04;24.20;99.90
52899;DHT22;38763;53.096;6.062;2022-08-19T14:51:30;24.20;99.90
52899;DHT22;38763;53.096;6.062;2022-08-19T14:53:56;24.30;99.90
52899;DHT22;38763;53.096;6.062;2022-08-19T14:56:27;24.20;99.90
52899;DHT22;38763;53.096;6.062;2022-08-19T14:58:53;24.30;99.90
52899;DHT22;38763;53.096;6.062;2022-08-19T15:01:21;24.40;99.90
52899;DHT22;38763;53.096;6.062;2022-08-19T15:03:48;24.30;99.90
52899;DHT22;38763;53.096;6.062;2022-08-19T15:06:14;24.40;99.90
52899;DHT22;38763;53.096;6.062;2022-08-19T15:08:41;24.20;99.90
52899;DHT22;38763;53.096;6.062;2022-08-19T15:11:17;24.20;99.90
52899;DHT22;38763;53.096;6.062;2022-08-19T15:13:45;24.20;99.90
52899;DHT22;38763;53.096;6.062;2022-08-19T15:16:11;24.30;99.90
52899;DHT22;38763;53.096;6.062;2022-08-19T15:18:40;24.40;99.90
52899;DHT22;38763;53.096;6.062;2022-08-19T15:21:10;24.50;99.90
52899;DHT22;38763;53.096;6.062;2022-08-19T15:23:38;24.60;99.90
52899;DHT22;38763;53.096;6.062;2022-08-19T15:26:04;24.50;99.90
52899;DHT22;38763;53.096;6.062;2022-08-19T15:28:33;24.50;99.90
52899;DHT22;38763;53.096;6.062;2022-08-19T15:30:59;24.50;99.90
52899;DHT22;38763;53.096;6.062;2022-08-19T15:33:25;24.40;99.90
52899;DHT22;38763;53.096;6.062;2022-08-19T15:35:51;24.30;99.90
52899;DHT22;38763;53.096;6.062;2022-08-19T15:38:18;24.30;99.90
52899;DHT22;38763;53.096;6.062;2022-08-19T15:40:49;24.20;99.90
52899;DHT22;38763;53.096;6.062;2022-08-19T15:43:17;24.20;99.90